createdAt,value
2018-08-04T00:00:47.941Z,99.99
2018-08-04T00:01:48.122Z,99.99
2018-08-04T00:02:47.897Z,99.99
2018-08-04T00:03:47.876Z,99.99
2018-08-04T00:04:48.055Z,99.99
2018-08-04T00:05:48.037Z,99.99
2018-08-04T00:06:47.810Z,99.99
2018-08-04T00:07:47.788Z,99.99
2018-08-04T00:08:47.772Z,99.99
2018-08-04T00:09:47.946Z,99.99
2018-08-04T00:10:47.722Z,99.99
2018-08-04T00:11:47.743Z,99.99
2018-08-04T00:12:47.684Z,99.99
2018-08-04T00:13:47.662Z,99.99
2018-08-04T00:14:47.837Z,99.99
2018-08-04T00:15:47.615Z,99.99
2018-08-04T00:16:47.590Z,99.99
2018-08-04T00:17:47.569Z,99.99
2018-08-04T00:18:47.546Z,99.99
2018-08-04T00:19:47.525Z,99.99
2018-08-04T00:20:47.502Z,99.99
2018-08-04T00:21:47.480Z,99.99
2018-08-04T00:22:47.459Z,99.99
2018-08-04T00:23:47.437Z,99.99
2018-08-04T00:24:47.414Z,99.99
2018-08-04T00:25:47.392Z,99.99
2018-08-04T00:26:47.370Z,99.99
2018-08-04T00:27:47.351Z,99.99
2018-08-04T00:28:47.326Z,99.99
2018-08-04T00:29:47.304Z,99.99
2018-08-04T00:30:47.281Z,99.99
2018-08-04T00:31:47.261Z,99.99
2018-08-04T00:32:47.238Z,99.99
2018-08-04T00:33:47.216Z,99.99
2018-08-04T00:34:47.197Z,99.99
2018-08-04T00:35:47.172Z,99.99
2018-08-04T00:36:47.149Z,99.99
2018-08-04T00:37:47.130Z,99.99
2018-08-04T00:38:47.107Z,99.99
2018-08-04T00:39:47.084Z,99.99
2018-08-04T00:40:47.062Z,99.99
2018-08-04T00:41:47.039Z,99.99
2018-08-04T00:42:47.018Z,99.99
2018-08-04T00:43:46.996Z,99.99
2018-08-04T00:44:46.972Z,99.99
2018-08-04T00:45:46.954Z,99.99
2018-08-04T00:46:46.934Z,99.99
2018-08-04T00:47:46.908Z,99.99
2018-08-04T00:48:46.885Z,99.99
2018-08-04T00:49:46.862Z,99.99
2018-08-04T00:50:46.846Z,99.99
2018-08-04T00:51:46.819Z,99.99
2018-08-04T00:52:46.795Z,99.99
2018-08-04T00:53:46.775Z,99.99
2018-08-04T00:54:46.752Z,99.99
2018-08-04T00:55:46.736Z,99.99
2018-08-04T00:56:46.709Z,99.99
2018-08-04T00:57:46.685Z,99.99
2018-08-04T00:58:46.664Z,99.99
2018-08-04T00:59:46.642Z,99.99
2018-08-04T01:00:46.621Z,99.99
2018-08-04T01:01:46.600Z,99.99
2018-08-04T01:02:46.575Z,99.99
2018-08-04T01:03:46.557Z,99.99
2018-08-04T01:04:46.531Z,99.99
2018-08-04T01:05:46.508Z,99.99
2018-08-04T01:06:46.492Z,99.99
2018-08-04T01:07:46.466Z,99.99
2018-08-04T01:08:46.441Z,99.99
2018-08-04T01:09:46.422Z,99.99
2018-08-04T01:10:46.401Z,99.99
2018-08-04T01:11:46.377Z,99.99
2018-08-04T01:12:46.356Z,99.99
2018-08-04T01:13:46.357Z,99.99
2018-08-04T01:14:46.311Z,99.99
2018-08-04T01:16:28.440Z,99.99
2018-08-04T01:17:28.418Z,99.99
2018-08-04T01:18:28.397Z,99.99
2018-08-04T01:19:28.377Z,99.99
2018-08-04T01:20:28.355Z,99.99
2018-08-04T01:21:28.331Z,99.99
2018-08-04T01:22:28.309Z,99.99
2018-08-04T01:23:28.287Z,99.99
2018-08-04T01:24:28.263Z,99.99
2018-08-04T01:25:28.447Z,99.99
2018-08-04T01:26:28.218Z,99.99
2018-08-04T01:27:28.205Z,99.99
2018-08-04T01:28:28.175Z,99.99
2018-08-04T01:29:28.152Z,99.99
2018-08-04T01:30:28.138Z,99.99
2018-08-04T01:31:28.107Z,99.99
2018-08-04T01:32:28.090Z,99.99
2018-08-04T01:33:28.064Z,99.99
2018-08-04T01:34:28.243Z,99.99
2018-08-04T01:35:28.021Z,99.99
2018-08-04T01:36:28.000Z,99.99
2018-08-04T01:37:27.973Z,99.99
2018-08-04T01:38:27.952Z,99.99
2018-08-04T01:39:27.930Z,99.99
2018-08-04T01:40:27.908Z,99.99
2018-08-04T01:41:27.886Z,99.99
2018-08-04T01:42:28.065Z,99.99
2018-08-04T01:43:27.842Z,99.99
2018-08-04T01:44:27.824Z,99.99
2018-08-04T01:45:27.797Z,99.99
2018-08-04T01:46:27.774Z,99.99
2018-08-04T01:47:27.754Z,99.99
2018-08-04T01:48:27.732Z,99.99
2018-08-04T01:49:27.708Z,99.99
2018-08-04T01:50:27.685Z,99.99
2018-08-04T01:51:27.664Z,99.99
2018-08-04T01:52:27.643Z,99.99
2018-08-04T01:53:27.619Z,99.99
2018-08-04T01:54:27.598Z,99.99
2018-08-04T01:55:27.576Z,99.99
2018-08-04T01:56:27.555Z,99.99
2018-08-04T01:57:27.531Z,99.99
2018-08-04T01:58:27.509Z,99.99
2018-08-04T01:59:27.487Z,99.99
2018-08-04T02:00:27.465Z,99.99
2018-08-04T02:01:27.442Z,99.99
2018-08-04T02:02:27.421Z,99.99
2018-08-04T02:03:27.399Z,99.99
2018-08-04T02:04:27.377Z,99.99
2018-08-04T02:05:27.356Z,99.99
2018-08-04T02:06:27.337Z,99.99
2018-08-04T02:07:27.312Z,99.99
2018-08-04T02:08:27.289Z,99.99
2018-08-04T02:09:27.265Z,99.99
2018-08-04T02:10:27.243Z,99.99
2018-08-04T02:11:27.221Z,99.99
2018-08-04T02:12:27.200Z,99.99
2018-08-04T02:13:27.177Z,99.99
2018-08-04T02:14:27.153Z,99.99
2018-08-04T02:15:27.134Z,99.99
2018-08-04T02:16:27.110Z,99.99
2018-08-04T02:17:27.087Z,99.99
2018-08-04T02:18:27.066Z,99.99
2018-08-04T02:19:27.044Z,99.99
2018-08-04T02:20:27.022Z,99.99
2018-08-04T02:21:26.999Z,99.99
2018-08-04T02:22:26.979Z,99.99
2018-08-04T02:23:26.958Z,99.99
2018-08-04T02:24:26.937Z,99.99
2018-08-04T02:25:26.910Z,99.99
2018-08-04T02:26:26.898Z,99.99
2018-08-04T02:27:26.866Z,99.99
2018-08-04T02:28:26.844Z,99.99
2018-08-04T02:29:26.835Z,99.99
2018-08-04T02:30:26.801Z,99.99
2018-08-04T02:31:26.776Z,99.99
2018-08-04T02:32:26.756Z,99.99
2018-08-04T02:33:26.739Z,99.99
2018-08-04T02:34:26.710Z,99.99
2018-08-04T02:35:26.688Z,99.99
2018-08-04T02:36:26.665Z,99.99
2018-08-04T02:37:26.643Z,99.99
2018-08-04T02:38:26.621Z,99.99
2018-08-04T02:39:26.599Z,99.99
2018-08-04T02:40:26.579Z,99.99
2018-08-04T02:41:26.568Z,99.99
2018-08-04T02:42:26.536Z,99.99
2018-08-04T02:43:26.511Z,99.99
2018-08-04T02:44:26.495Z,99.99
2018-08-04T02:45:26.464Z,99.99
2018-08-04T02:46:26.443Z,99.99
2018-08-04T02:47:26.572Z,99.99
2018-08-04T02:48:26.407Z,99.99
2018-08-04T02:49:26.377Z,99.99
2018-08-04T02:50:26.353Z,99.99
2018-08-04T02:51:26.333Z,99.99
2018-08-04T02:52:26.310Z,99.99
2018-08-04T02:53:26.287Z,99.99
2018-08-04T02:54:26.269Z,99.99
2018-08-04T02:55:26.242Z,99.99
2018-08-04T02:56:26.221Z,99.99
2018-08-04T02:57:26.198Z,99.99
2018-08-04T02:58:26.175Z,99.99
2018-08-04T02:59:26.158Z,99.99
2018-08-04T03:00:26.140Z,99.99
2018-08-04T03:01:26.108Z,99.99
2018-08-04T03:02:26.090Z,99.99
2018-08-04T03:03:26.065Z,99.99
2018-08-04T03:04:26.045Z,99.99
2018-08-04T03:05:26.020Z,99.99
2018-08-04T03:06:25.998Z,99.99
2018-08-04T03:07:25.977Z,99.99
2018-08-04T03:08:26.012Z,99.99
2018-08-04T03:09:25.931Z,99.99
2018-08-04T03:10:25.909Z,99.99
2018-08-04T03:11:25.890Z,99.99
2018-08-04T03:12:25.865Z,99.99
2018-08-04T03:13:25.843Z,99.99
2018-08-04T03:14:25.820Z,99.99
2018-08-04T03:15:25.800Z,99.99
2018-08-04T03:16:25.776Z,99.99
2018-08-04T03:17:25.757Z,99.99
2018-08-04T03:18:25.732Z,99.99
2018-08-04T03:19:25.713Z,99.99
2018-08-04T03:20:25.690Z,99.99
2018-08-04T03:21:25.665Z,99.99
2018-08-04T03:22:25.641Z,99.99
2018-08-04T03:23:25.623Z,99.99
2018-08-04T03:25:07.953Z,99.99
2018-08-04T03:26:07.729Z,99.99
2018-08-04T03:27:07.707Z,99.99
2018-08-04T03:28:07.692Z,99.99
2018-08-04T03:29:10.486Z,99.99
2018-08-04T03:30:49.999Z,99.99
2018-08-04T03:31:49.769Z,99.99
2018-08-04T03:32:49.749Z,99.99
2018-08-04T03:33:49.725Z,99.99
2018-08-04T03:34:49.702Z,99.99
2018-08-04T03:35:49.882Z,99.99
2018-08-04T03:36:49.867Z,99.99
2018-08-04T03:37:49.635Z,99.99
2018-08-04T03:38:49.613Z,99.99
2018-08-04T03:39:49.589Z,99.99
2018-08-04T03:40:49.569Z,99.99
2018-08-04T03:41:49.545Z,99.99
2018-08-04T03:42:49.724Z,99.99
2018-08-04T03:43:49.500Z,99.99
2018-08-04T03:44:49.478Z,99.99
2018-08-04T03:45:49.454Z,99.99
2018-08-04T03:46:49.433Z,99.99
2018-08-04T03:47:49.412Z,99.99
2018-08-04T03:48:49.389Z,99.99
2018-08-04T03:49:49.368Z,99.99
2018-08-04T03:50:49.344Z,99.99
2018-08-04T03:51:49.322Z,99.99
2018-08-04T03:52:49.299Z,99.99
2018-08-04T03:53:49.277Z,99.99
2018-08-04T03:54:49.257Z,99.99
2018-08-04T03:55:49.232Z,99.99
2018-08-04T03:56:49.210Z,99.99
2018-08-04T03:57:49.188Z,99.99
2018-08-04T03:58:49.366Z,99.99
2018-08-04T03:59:49.170Z,99.99
2018-08-04T04:00:49.121Z,99.99
2018-08-04T04:01:49.099Z,99.99
2018-08-04T04:02:49.076Z,99.99
2018-08-04T04:03:49.053Z,99.99
2018-08-04T04:04:49.034Z,99.99
2018-08-04T04:05:49.014Z,99.99
2018-08-04T04:06:48.994Z,99.99
2018-08-04T04:07:48.964Z,99.99
2018-08-04T04:08:48.972Z,99.99
2018-08-04T04:09:48.920Z,99.99
2018-08-04T04:10:48.898Z,99.99
2018-08-04T04:11:48.879Z,99.99
2018-08-04T04:12:48.852Z,99.99
2018-08-04T04:13:48.831Z,99.99
2018-08-04T04:14:48.812Z,99.99
2018-08-04T04:15:48.787Z,99.99
2018-08-04T04:16:48.771Z,99.99
2018-08-04T04:17:48.742Z,99.99
2018-08-04T04:18:48.720Z,99.99
2018-08-04T04:19:48.699Z,99.99
2018-08-04T04:20:48.678Z,99.99
2018-08-04T04:21:48.657Z,99.99
2018-08-04T04:22:48.639Z,99.99
2018-08-04T04:23:48.618Z,99.99
2018-08-04T04:24:48.592Z,99.99
2018-08-04T04:25:48.566Z,99.99
2018-08-04T04:26:48.544Z,99.99
2018-08-04T04:27:48.726Z,99.99
2018-08-04T04:28:48.703Z,99.99
2018-08-04T04:29:48.680Z,99.99
2018-08-04T04:30:48.659Z,99.99
2018-08-04T04:31:48.640Z,99.99
2018-08-04T04:32:48.619Z,99.99
2018-08-04T04:33:48.388Z,99.99
2018-08-04T04:34:48.367Z,99.99
2018-08-04T04:35:48.343Z,99.99
2018-08-04T04:36:48.385Z,99.99
2018-08-04T04:37:48.300Z,99.99
2018-08-04T04:38:48.277Z,99.99
2018-08-04T04:39:48.255Z,99.99
2018-08-04T04:40:48.234Z,99.99
2018-08-04T04:41:48.212Z,99.99
2018-08-04T04:42:48.187Z,99.99
2018-08-04T04:43:48.165Z,99.99
2018-08-04T04:44:48.144Z,99.99
2018-08-04T04:45:48.126Z,99.99
2018-08-04T04:46:48.100Z,99.99
2018-08-04T04:47:48.077Z,99.99
2018-08-04T04:48:48.054Z,99.99
2018-08-04T04:49:48.033Z,99.99
2018-08-04T04:50:48.010Z,99.99
2018-08-04T04:51:47.988Z,99.99
2018-08-04T04:52:47.972Z,99.99
2018-08-04T04:53:47.944Z,99.99
2018-08-04T04:54:47.923Z,99.99
2018-08-04T04:55:47.899Z,99.99
2018-08-04T04:56:47.877Z,99.99
2018-08-04T04:57:47.865Z,99.99
2018-08-04T04:58:47.834Z,99.99
2018-08-04T04:59:47.811Z,99.99
2018-08-04T05:00:47.790Z,99.99
2018-08-04T05:01:47.767Z,99.99
2018-08-04T05:02:47.746Z,99.99
2018-08-04T05:03:47.723Z,99.99
2018-08-04T05:04:47.701Z,99.99
2018-08-04T05:05:47.682Z,99.99
2018-08-04T05:06:47.659Z,99.99
2018-08-04T05:07:47.634Z,99.99
2018-08-04T05:08:47.668Z,99.99
2018-08-04T05:09:47.591Z,99.99
2018-08-04T05:10:47.772Z,99.99
2018-08-04T05:11:47.547Z,99.99
2018-08-04T05:12:47.525Z,99.99
2018-08-04T05:13:47.504Z,99.99
2018-08-04T05:14:47.483Z,99.99
2018-08-04T05:15:47.458Z,99.99
2018-08-04T05:16:47.439Z,99.99
2018-08-04T05:17:47.416Z,99.99
2018-08-04T05:18:47.397Z,99.99
2018-08-04T05:19:47.373Z,99.99
2018-08-04T05:20:47.355Z,99.99
2018-08-04T05:21:47.336Z,99.99
2018-08-04T05:22:47.308Z,99.99
2018-08-04T05:23:47.289Z,99.99
2018-08-04T05:24:47.264Z,99.99
2018-08-04T05:25:47.243Z,99.99
2018-08-04T05:26:47.222Z,99.99
2018-08-04T05:27:47.199Z,99.99
2018-08-04T05:28:47.178Z,99.99
2018-08-04T05:29:47.159Z,99.99
2018-08-04T05:30:47.136Z,99.99
2018-08-04T05:31:47.113Z,99.99
2018-08-04T05:32:47.092Z,99.99
2018-08-04T05:33:47.075Z,99.99
2018-08-04T05:34:47.057Z,99.99
2018-08-04T05:35:47.028Z,99.99
2018-08-04T05:36:47.006Z,99.99
2018-08-04T05:37:46.985Z,99.99
2018-08-04T05:38:46.964Z,99.99
2018-08-04T05:39:46.943Z,99.99
2018-08-04T05:40:46.922Z,99.99
2018-08-04T05:41:46.899Z,99.99
2018-08-04T05:42:46.878Z,99.99
2018-08-04T05:43:46.862Z,99.99
2018-08-04T05:44:46.835Z,99.99
2018-08-04T05:45:46.818Z,99.99
2018-08-04T05:46:46.793Z,99.99
2018-08-04T05:47:46.771Z,99.99
2018-08-04T05:48:46.750Z,99.99
2018-08-04T05:49:46.936Z,99.99
2018-08-04T05:50:46.713Z,99.99
2018-08-04T05:51:46.892Z,99.99
2018-08-04T05:52:46.868Z,99.99
2018-08-04T05:53:46.645Z,99.99
2018-08-04T05:54:46.826Z,99.99
2018-08-04T05:55:46.805Z,99.99
2018-08-04T05:56:46.582Z,99.99
2018-08-04T05:57:46.562Z,99.99
2018-08-04T05:58:46.540Z,99.99
2018-08-04T05:59:46.518Z,99.99
2018-08-04T06:00:46.498Z,99.99
2018-08-04T06:01:46.477Z,99.99
2018-08-04T06:02:46.459Z,99.99
2018-08-04T06:03:46.640Z,99.99
2018-08-04T06:04:46.418Z,99.99
2018-08-04T06:05:46.396Z,99.99
2018-08-04T06:06:46.375Z,99.99
2018-08-04T06:07:46.367Z,99.99
2018-08-04T06:08:46.339Z,99.99
2018-08-04T06:09:46.316Z,99.99
2018-08-04T06:10:46.293Z,99.99
2018-08-04T06:11:46.271Z,99.99
2018-08-04T06:12:46.251Z,99.99
2018-08-04T06:13:46.232Z,99.99
2018-08-04T06:14:46.211Z,99.99
2018-08-04T06:15:46.188Z,99.99
2018-08-04T06:16:46.170Z,99.99
2018-08-04T06:17:46.155Z,99.99
2018-08-04T06:19:46.311Z,99.99
2018-08-04T06:20:46.090Z,99.99
2018-08-04T06:21:46.270Z,99.99
2018-08-04T06:24:10.570Z,99.99
2018-08-04T06:33:36.390Z,98.44
2018-08-04T06:35:18.788Z,94.95
2018-08-04T06:36:18.766Z,91.46
2018-08-04T06:37:18.746Z,90.88
2018-08-04T06:38:18.727Z,92.29
2018-08-04T06:40:00.864Z,91.99
2018-08-04T06:41:00.844Z,92.82
2018-08-04T06:42:00.827Z,94.76
2018-08-04T06:43:00.605Z,97.72
2018-08-04T06:44:00.586Z,98.35
2018-08-04T06:45:00.566Z,96.80
2018-08-04T06:46:00.549Z,96.60
2018-08-04T06:47:00.532Z,97.62
2018-08-04T06:48:00.516Z,98.68
2018-08-04T06:49:00.497Z,98.39
2018-08-04T06:50:00.481Z,98.30
2018-08-04T06:51:00.459Z,98.88
2018-08-04T06:52:00.437Z,99.16
2018-08-04T06:53:00.446Z,99.79
2018-08-04T06:54:00.400Z,99.99
2018-08-04T06:55:00.383Z,99.99
2018-08-04T06:56:00.362Z,99.99
2018-08-04T06:57:00.343Z,99.99
2018-08-04T06:58:00.323Z,99.99
2018-08-04T06:59:00.305Z,99.99
2018-08-04T07:00:00.285Z,99.99
2018-08-04T07:01:00.265Z,99.99
2018-08-04T07:02:00.252Z,99.99
2018-08-04T07:03:00.228Z,99.99
2018-08-04T07:04:00.213Z,99.99
2018-08-04T07:05:00.189Z,99.99
2018-08-04T07:06:00.170Z,99.79
2018-08-04T07:07:00.150Z,99.94
2018-08-04T07:08:00.131Z,99.99
2018-08-04T07:09:00.114Z,99.99
2018-08-04T07:10:00.092Z,99.99
2018-08-04T07:11:00.076Z,99.99
2018-08-04T07:12:00.054Z,99.46
2018-08-04T07:13:00.034Z,96.07
2018-08-04T07:14:00.014Z,93.93
2018-08-04T07:14:59.994Z,91.61
2018-08-04T07:15:59.975Z,91.12
2018-08-04T07:16:59.956Z,91.85
2018-08-04T07:18:42.294Z,93.02
2018-08-04T07:19:42.276Z,91.46
2018-08-04T07:22:48.771Z,86.15
2018-08-04T07:23:48.512Z,86.89
2018-08-04T07:24:48.491Z,88.79
2018-08-04T07:26:30.828Z,88.54
2018-08-04T07:27:30.811Z,87.12
2018-08-04T07:28:30.593Z,86.93
2018-08-04T07:29:30.777Z,87.03
2018-08-04T07:31:55.074Z,84.58
2018-08-04T07:32:55.119Z,84.53
2018-08-04T07:33:55.044Z,82.78
2018-08-04T07:34:55.025Z,82.20
2018-08-04T07:35:55.009Z,85.08
2018-08-04T07:37:40.176Z,87.03
2018-08-04T07:46:23.496Z,84.07
2018-08-04T07:47:20.853Z,86.99
2018-08-04T07:51:51.626Z,82.82
2018-08-04T07:52:51.610Z,79.51
2018-08-04T07:53:51.593Z,80.74
2018-08-04T07:54:51.378Z,82.99
2018-08-04T07:57:16.030Z,85.81
2018-08-04T08:00:22.340Z,85.67
2018-08-04T08:01:22.334Z,85.61
2018-08-04T08:02:22.109Z,82.64
2018-08-04T08:03:22.095Z,83.76
2018-08-04T08:04:22.077Z,83.44
2018-08-04T08:06:04.425Z,85.18
2018-08-04T08:07:04.409Z,86.85
2018-08-04T08:08:04.392Z,88.06
2018-08-04T08:09:04.177Z,88.20
2018-08-04T08:10:04.363Z,88.88
2018-08-04T08:11:04.195Z,86.99
2018-08-04T08:12:04.334Z,85.81
2018-08-04T08:14:28.902Z,81.48
2018-08-04T08:15:28.893Z,81.51
2018-08-04T08:16:28.873Z,80.83
2018-08-04T08:18:53.178Z,79.74
2018-08-04T08:19:53.162Z,80.38
2018-08-04T08:21:35.308Z,79.57
2018-08-04T08:23:17.493Z,80.43
2018-08-04T08:24:17.439Z,80.62
2018-08-04T08:25:17.427Z,77.13
2018-08-04T08:26:17.209Z,75.31
2018-08-04T08:27:17.418Z,74.24
2018-08-04T08:28:20.004Z,77.54
2018-08-04T08:29:17.369Z,79.06
2018-08-04T08:30:17.355Z,77.97
2018-08-04T08:31:17.378Z,78.36
2018-08-04T08:32:17.329Z,77.48
2018-08-04T08:33:17.317Z,76.45
2018-08-04T08:34:17.301Z,76.19
2018-08-04T08:35:17.493Z,72.95
2018-08-04T08:36:17.277Z,70.87
2018-08-04T08:37:17.261Z,71.64
2018-08-04T08:38:17.247Z,73.05
2018-08-04T08:39:17.235Z,72.27
2018-08-04T08:41:02.408Z,71.48
2018-08-04T08:41:59.372Z,70.02
2018-08-04T08:42:59.358Z,70.64
2018-08-04T08:45:01.953Z,71.55
2018-08-04T08:47:23.640Z,72.23
2018-08-04T08:51:54.433Z,70.05
2018-08-04T09:32:15.411Z,67.77
2018-08-04T09:33:57.559Z,70.09
2018-08-04T09:37:04.031Z,70.93
2018-08-04T09:38:04.019Z,69.99
2018-08-04T09:39:04.059Z,70.54
2018-08-04T09:44:59.127Z,70.05
2018-08-04T09:46:41.276Z,69.40
2018-08-04T09:47:41.267Z,68.75
2018-08-04T09:49:23.414Z,67.38
2018-08-04T09:50:23.407Z,69.21
2018-08-04T09:52:06.841Z,69.56
2018-08-04T09:55:13.315Z,69.50
2018-08-04T09:56:13.912Z,68.78
2018-08-04T09:57:13.293Z,68.39
2018-08-04T09:58:13.288Z,69.21
2018-08-04T09:59:13.271Z,67.29
2018-08-04T10:01:13.047Z,66.73
2018-08-04T10:03:37.564Z,66.99
2018-08-04T10:04:37.553Z,67.02
2018-08-04T10:05:37.339Z,70.18
2018-08-04T10:24:05.093Z,72.58
2018-08-04T10:25:04.874Z,73.43
2018-08-04T10:26:04.891Z,76.43
2018-08-04T10:27:05.052Z,75.08
2018-08-04T10:28:04.848Z,71.88
2018-08-04T10:29:04.828Z,68.55
2018-08-04T12:07:29.563Z,75.92
2018-08-04T12:08:32.315Z,77.06
2018-08-04T12:10:54.606Z,75.67
2018-08-04T12:11:53.180Z,74.67
2018-08-04T12:12:53.364Z,74.24
2018-08-04T12:13:53.151Z,72.69
2018-08-04T12:14:53.136Z,70.77
2018-08-04T12:15:53.124Z,68.85
2018-08-04T12:16:53.313Z,68.59
2018-08-04T12:17:53.098Z,70.28
2018-08-04T12:18:53.086Z,70.70
2018-08-04T12:19:53.073Z,72.13
2018-08-04T12:20:53.061Z,73.46
2018-08-04T12:21:53.049Z,74.76
2018-08-04T12:22:53.036Z,74.69
2018-08-04T12:23:53.225Z,74.76
2018-08-04T12:24:53.215Z,75.73
2018-08-04T12:25:53.402Z,75.04
2018-08-04T12:27:35.346Z,74.95
2018-08-04T12:28:35.336Z,75.10
2018-08-04T12:29:35.321Z,75.04
2018-08-04T12:30:35.104Z,75.18
2018-08-04T12:31:35.358Z,73.36
2018-08-04T12:32:35.275Z,71.74
2018-08-04T12:33:37.884Z,71.39
2018-08-04T12:35:17.408Z,69.53
2018-08-04T12:36:17.192Z,68.59
2018-08-04T12:37:17.178Z,68.36
2018-08-04T12:38:17.166Z,69.10
2018-08-04T12:39:17.353Z,70.34
2018-08-04T12:40:17.135Z,69.49
2018-08-04T12:41:17.361Z,68.91
2018-08-04T12:42:17.116Z,67.71
2018-08-04T12:43:17.097Z,67.44
2018-08-04T12:44:17.082Z,67.54
2018-08-04T12:45:17.276Z,67.54
2018-08-04T12:46:17.261Z,67.32
2018-08-04T12:47:17.246Z,67.38
2018-08-04T12:48:17.030Z,68.16
2018-08-04T12:49:17.220Z,67.29
2018-08-04T12:50:17.211Z,68.77
2018-08-04T12:51:17.204Z,69.46
2018-08-04T12:52:17.184Z,68.71
2018-08-04T12:54:02.154Z,66.76
2018-08-04T12:54:59.318Z,66.47
2018-08-04T12:55:59.103Z,65.52
2018-08-04T12:56:59.293Z,64.80
2018-08-04T12:58:02.306Z,64.18
2018-08-04T13:00:23.600Z,65.52
2018-08-04T13:02:47.903Z,67.71
2018-08-04T13:03:47.891Z,69.30
2018-08-04T13:06:54.365Z,67.38
2018-08-04T13:07:54.152Z,67.68
2018-08-04T13:08:54.212Z,68.29
2018-08-04T13:09:54.129Z,66.34
2018-08-04T13:10:54.116Z,66.30
2018-08-04T13:11:54.117Z,65.42
2018-08-04T13:12:54.095Z,66.08
2018-08-04T13:13:54.081Z,65.13
2018-08-04T13:14:54.075Z,65.52
2018-08-04T13:15:54.273Z,66.60
2018-08-04T13:16:54.048Z,66.11
2018-08-04T13:18:36.447Z,67.12
2018-08-04T13:19:36.390Z,67.74
2018-08-04T13:20:36.177Z,68.75
2018-08-04T13:21:36.167Z,67.71
2018-08-04T13:22:36.153Z,67.32
2018-08-04T13:23:36.141Z,65.98
2018-08-04T13:24:36.153Z,65.23
2018-08-04T13:25:36.322Z,63.99
2018-08-04T13:26:36.109Z,63.34
2018-08-04T13:27:36.097Z,63.21
2018-08-04T13:28:36.091Z,66.34
2018-08-04T13:29:36.091Z,65.85
2018-08-04T13:30:36.064Z,67.38
2018-08-04T13:31:36.053Z,67.77
2018-08-04T13:32:36.052Z,67.83
2018-08-04T13:33:36.031Z,66.89
2018-08-04T13:34:36.020Z,66.14
2018-08-04T13:35:36.013Z,65.59
2018-08-04T13:36:35.996Z,64.28
2018-08-04T13:37:36.035Z,63.07
2018-08-04T13:38:36.178Z,62.48
2018-08-04T13:40:18.327Z,62.82
2018-08-04T13:41:18.317Z,65.53
2018-08-04T13:42:18.102Z,67.15
2018-08-04T13:43:18.299Z,67.05
2018-08-04T13:44:18.087Z,67.61
2018-08-04T13:47:00.421Z,69.00
2018-08-04T13:48:00.409Z,68.16
2018-08-04T13:49:00.397Z,68.35
2018-08-04T13:50:00.384Z,67.86
2018-08-04T13:51:00.385Z,67.71
2018-08-04T13:52:00.358Z,67.25
2018-08-04T13:53:00.345Z,66.05
2018-08-04T13:54:00.131Z,64.48
2018-08-04T13:55:00.117Z,63.80
2018-08-04T13:56:00.104Z,64.39
2018-08-04T13:57:00.299Z,64.75
2018-08-04T13:58:00.280Z,65.04
2018-08-04T13:59:00.065Z,65.33
2018-08-04T14:00:00.256Z,65.43
2018-08-04T14:01:00.048Z,65.53
2018-08-04T14:02:00.028Z,64.75
2018-08-04T14:03:00.013Z,64.39
2018-08-04T14:03:59.998Z,63.60
2018-08-04T14:04:59.990Z,63.73
2018-08-04T14:06:00.084Z,63.05
2018-08-04T14:06:59.959Z,64.48
2018-08-04T14:08:00.152Z,64.42
2018-08-04T14:09:03.767Z,64.29
2018-08-04T14:10:00.124Z,65.63
2018-08-04T14:20:08.194Z,64.75
2018-08-04T14:21:08.181Z,64.65
2018-08-04T14:22:08.168Z,65.04
2018-08-04T14:23:07.952Z,64.39
2018-08-04T14:24:07.938Z,63.77
2018-08-04T14:25:07.925Z,64.26
2018-08-04T14:26:07.913Z,64.75
2018-08-04T14:27:07.899Z,64.39
2018-08-04T14:28:07.887Z,64.78
2018-08-04T14:29:07.873Z,64.58
2018-08-04T14:30:07.862Z,64.26
2018-08-04T14:31:07.848Z,63.87
2018-08-04T14:32:08.038Z,65.30
2018-08-04T14:33:07.821Z,66.31
2018-08-04T14:34:07.818Z,67.18
2018-08-04T14:35:07.801Z,67.57
2018-08-04T14:36:07.786Z,67.02
2018-08-04T14:37:07.771Z,66.56
2018-08-04T14:38:07.757Z,65.14
2018-08-04T14:39:07.753Z,65.43
2018-08-04T14:40:07.746Z,64.97
2018-08-04T14:41:07.719Z,64.09
2018-08-04T14:42:07.708Z,64.32
2018-08-04T14:43:07.694Z,63.54
2018-08-04T14:44:07.882Z,63.47
2018-08-04T14:45:07.667Z,63.64
2018-08-04T14:46:07.653Z,64.48
2018-08-04T14:47:07.660Z,64.39
2018-08-04T14:48:07.629Z,63.64
2018-08-04T14:49:07.614Z,64.55
2018-08-04T14:50:07.602Z,65.14
2018-08-04T14:51:07.588Z,64.29
2018-08-04T14:52:07.575Z,63.93
2018-08-04T14:53:07.561Z,64.03
2018-08-04T14:54:07.548Z,63.24
2018-08-04T14:55:07.605Z,65.30
2018-08-04T14:56:07.523Z,66.05
2018-08-04T14:57:07.514Z,67.12
2018-08-04T14:58:07.496Z,66.44
2018-08-04T14:59:07.483Z,66.27
2018-08-04T15:00:07.470Z,66.37
2018-08-04T15:01:07.456Z,66.63
2018-08-04T15:02:07.449Z,66.83
2018-08-04T15:03:07.634Z,66.27
2018-08-04T15:04:07.618Z,65.33
2018-08-04T15:05:07.607Z,65.30
2018-08-04T15:06:49.752Z,67.18
2018-08-04T15:07:49.737Z,67.41
2018-08-04T15:08:49.726Z,67.22
2018-08-04T15:09:49.710Z,66.86
2018-08-04T15:10:49.494Z,67.77
2018-08-04T15:11:49.681Z,67.86
2018-08-04T15:12:49.668Z,68.00
2018-08-04T15:13:49.450Z,66.86
2018-08-04T15:14:49.438Z,66.76
2018-08-04T15:15:49.475Z,68.00
2018-08-04T15:16:49.432Z,68.00
2018-08-04T15:17:49.395Z,68.03
2018-08-04T15:18:49.381Z,68.00
2018-08-04T15:19:49.365Z,68.62
2018-08-04T15:20:49.354Z,70.01
2018-08-04T15:21:49.337Z,68.94
2018-08-04T15:22:49.325Z,68.39
2018-08-04T15:23:49.513Z,68.29
2018-08-04T15:24:49.498Z,68.94
2018-08-04T15:25:49.484Z,69.53
2018-08-04T15:26:49.470Z,68.55
2018-08-04T15:27:49.516Z,68.68
2018-08-04T15:28:49.442Z,68.74
2018-08-04T15:31:58.735Z,70.47
2018-08-04T15:32:55.893Z,70.17
2018-08-04T15:33:55.909Z,69.88
2018-08-04T15:34:55.659Z,70.47
2018-08-04T15:38:44.480Z,73.84
2018-08-04T15:39:44.469Z,73.65
2018-08-04T15:41:26.608Z,74.78
2018-08-04T15:42:26.390Z,74.58
2018-08-04T15:43:26.577Z,74.68
2018-08-04T15:44:26.562Z,74.78
2018-08-04T15:45:26.545Z,74.49
2018-08-04T15:46:26.532Z,73.80
2018-08-04T15:47:26.515Z,73.06
2018-08-04T15:48:26.499Z,73.80
2018-08-04T15:49:26.486Z,73.71
2018-08-04T15:50:26.466Z,74.10
2018-08-04T15:51:26.249Z,74.49
2018-08-04T15:52:26.435Z,74.35
2018-08-04T15:53:29.047Z,74.58
2018-08-04T15:54:26.402Z,73.84
2018-08-04T15:55:26.184Z,72.34
2018-08-04T15:56:26.371Z,74.00
2018-08-04T15:57:26.152Z,73.02
2018-08-04T15:58:26.134Z,72.54
2018-08-04T15:59:26.118Z,72.77
2018-08-04T16:00:26.104Z,72.73
2018-08-04T16:01:26.091Z,71.76
2018-08-04T16:02:26.070Z,71.64
2018-08-04T16:03:26.054Z,71.41
2018-08-04T16:04:26.241Z,71.50
2018-08-04T16:05:26.023Z,72.19
2018-08-04T16:06:26.006Z,71.70
2018-08-04T16:07:25.991Z,71.80
2018-08-04T16:08:25.975Z,71.41
2018-08-04T16:09:26.167Z,70.92
2018-08-04T16:10:25.943Z,71.21
2018-08-04T16:11:25.927Z,71.80
2018-08-04T16:12:25.910Z,71.95
2018-08-04T16:13:25.895Z,72.83
2018-08-04T16:14:25.879Z,73.32
2018-08-04T16:15:25.862Z,74.06
2018-08-04T16:16:25.849Z,73.51
2018-08-04T16:17:25.834Z,73.12
2018-08-04T16:18:25.818Z,73.32
2018-08-04T16:19:25.799Z,72.67
2018-08-04T16:20:25.784Z,72.38
2018-08-04T16:21:25.775Z,71.89
2018-08-04T16:22:25.750Z,71.31
2018-08-04T16:23:25.735Z,71.21
2018-08-04T16:24:25.738Z,71.80
2018-08-04T16:25:25.705Z,72.44
2018-08-04T16:26:25.684Z,71.60
2018-08-04T16:27:25.674Z,70.86
2018-08-04T16:28:25.657Z,70.47
2018-08-04T16:29:25.638Z,71.34
2018-08-04T16:30:25.622Z,70.37
2018-08-04T16:31:25.606Z,70.82
2018-08-04T16:32:25.591Z,72.15
2018-08-04T16:33:25.575Z,74.06
2018-08-04T16:34:25.558Z,74.32
2018-08-04T16:35:25.543Z,74.26
2018-08-04T16:36:25.526Z,75.09
2018-08-04T16:38:50.029Z,74.06
2018-08-04T16:40:34.792Z,73.90
2018-08-04T16:41:32.160Z,73.41
2018-08-04T16:42:32.136Z,72.44
2018-08-04T16:43:32.128Z,72.83
2018-08-04T16:44:34.730Z,72.92
2018-08-04T16:45:32.087Z,73.32
2018-08-04T16:46:32.071Z,72.83
2018-08-04T16:47:32.054Z,73.83
2018-08-04T16:48:32.037Z,74.32
2018-08-04T16:49:32.119Z,75.15
2018-08-04T16:51:56.320Z,76.03
2018-08-04T16:55:44.925Z,76.03
2018-08-04T16:58:09.526Z,76.28
2018-08-04T16:59:09.202Z,76.67
2018-08-04T17:01:33.499Z,76.22
2018-08-04T17:03:57.792Z,77.45
2018-08-04T17:04:57.571Z,77.51